createdAt,value
2023-04-13T00:01:59.149Z,7.28
2023-04-13T00:07:07.790Z,7.01
2023-04-13T00:12:16.608Z,6.93
2023-04-13T00:17:25.790Z,7.21
2023-04-13T00:22:34.477Z,6.97
2023-04-13T00:27:43.634Z,6.45
2023-04-13T00:32:52.569Z,6.79
2023-04-13T00:38:01.223Z,6.18
2023-04-13T00:43:09.793Z,6.61
2023-04-13T00:48:18.753Z,6.92
2023-04-13T00:53:27.152Z,6.94
2023-04-13T00:58:36.198Z,6.66
2023-04-13T01:03:44.715Z,7.03
2023-04-13T01:08:53.685Z,7.11
2023-04-13T01:14:02.384Z,6.47
2023-04-13T01:19:10.995Z,6.95
2023-04-13T01:24:19.590Z,6.77
2023-04-13T01:29:28.554Z,6.86
2023-04-13T01:34:37.657Z,6.57
2023-04-13T01:39:47.358Z,7.23
2023-04-13T01:44:54.536Z,6.97
2023-04-13T01:50:03.990Z,7.12
2023-04-13T01:55:12.667Z,7.76
2023-04-13T02:00:21.622Z,6.88
2023-04-13T02:05:30.328Z,7.90
2023-04-13T02:10:39.238Z,6.89
2023-04-13T02:15:47.682Z,7.53
2023-04-13T02:20:56.338Z,7.21
2023-04-13T02:26:05.262Z,7.67
2023-04-13T02:31:14.533Z,7.69
2023-04-13T02:36:23.190Z,7.30
2023-04-13T02:41:32.354Z,7.46
2023-04-13T02:46:41.094Z,7.47
2023-04-13T02:51:49.953Z,8.03
2023-04-13T02:56:58.424Z,7.34
2023-04-13T03:02:07.811Z,7.16
2023-04-13T03:07:16.615Z,8.28
2023-04-13T03:12:25.638Z,8.30
2023-04-13T03:17:34.801Z,10.22
2023-04-13T03:22:43.687Z,12.11
2023-04-13T03:27:52.402Z,12.68
2023-04-13T03:33:01.553Z,14.00
2023-04-13T03:38:10.275Z,12.91
2023-04-13T03:43:19.385Z,12.68
2023-04-13T03:48:28.304Z,12.09
2023-04-13T03:53:37.044Z,11.68
2023-04-13T03:58:45.662Z,11.93
2023-04-13T04:03:54.664Z,11.64
2023-04-13T04:09:03.341Z,11.33
2023-04-13T04:14:12.775Z,11.49
2023-04-13T04:19:21.263Z,11.19
2023-04-13T04:24:30.541Z,11.99
2023-04-13T04:29:39.352Z,11.38
2023-04-13T04:34:48.093Z,11.68
2023-04-13T04:39:56.619Z,11.77
2023-04-13T04:45:06.264Z,11.71
2023-04-13T04:50:15.291Z,10.93
2023-04-13T04:55:24.574Z,11.36
2023-04-13T05:00:33.824Z,10.93
2023-04-13T05:05:42.989Z,10.63
2023-04-13T05:10:51.501Z,10.32
2023-04-13T05:16:00.734Z,9.86
2023-04-13T05:21:09.308Z,10.08
2023-04-13T05:26:18.303Z,9.86
2023-04-13T05:31:29.438Z,9.81
2023-04-13T05:36:28.180Z,9.72
2023-04-13T05:41:36.717Z,9.40
2023-04-13T05:46:45.648Z,9.63
2023-04-13T05:51:54.849Z,10.86
2023-04-13T05:57:03.578Z,9.71
2023-04-13T06:02:12.265Z,9.91
2023-04-13T06:07:21.540Z,10.45
2023-04-13T06:12:30.227Z,12.00
2023-04-13T06:17:39.298Z,11.43
2023-04-13T06:22:47.565Z,12.08
2023-04-13T06:27:57.138Z,12.58
2023-04-13T06:33:05.628Z,13.63
2023-04-13T06:38:14.481Z,13.95
2023-04-13T06:43:29.596Z,19.87
2023-04-13T06:48:32.629Z,21.67
2023-04-13T06:53:41.262Z,18.73
2023-04-13T06:58:50.677Z,16.09
2023-04-13T07:03:59.966Z,13.19
2023-04-13T07:09:08.390Z,11.94
2023-04-13T07:14:17.130Z,11.24
2023-04-13T07:19:26.228Z,9.91
2023-04-13T07:24:34.901Z,9.48
2023-04-13T07:29:43.892Z,9.33
2023-04-13T07:34:52.491Z,8.73
2023-04-13T07:40:01.622Z,8.83
2023-04-13T07:45:10.247Z,9.76
2023-04-13T07:50:19.175Z,9.33
2023-04-13T07:55:27.606Z,7.99
2023-04-13T08:00:36.601Z,7.47
2023-04-13T08:05:47.092Z,7.32
2023-04-13T08:10:53.792Z,9.79
2023-04-13T08:16:03.185Z,12.29
2023-04-13T08:21:12.077Z,7.22
2023-04-13T08:26:20.778Z,6.34
2023-04-13T08:31:31.020Z,6.35
2023-04-13T08:36:29.848Z,7.02
2023-04-13T08:41:40.420Z,5.32
2023-04-13T08:46:52.806Z,5.33
2023-04-13T08:51:50.614Z,4.76
2023-04-13T08:56:59.491Z,4.78
2023-04-13T09:02:08.622Z,4.66
2023-04-13T09:07:17.128Z,4.76
2023-04-13T09:12:26.195Z,5.06
2023-04-13T09:17:35.961Z,4.73
2023-04-13T09:22:45.204Z,5.05
2023-04-13T09:27:53.717Z,5.19
2023-04-13T09:33:03.079Z,5.03
2023-04-13T09:38:11.724Z,5.47
2023-04-13T09:43:20.946Z,5.17
2023-04-13T09:48:29.669Z,5.35
2023-04-13T09:53:38.625Z,5.99
2023-04-13T09:58:47.639Z,5.29
2023-04-13T10:03:57.181Z,5.14
2023-04-13T10:09:05.544Z,5.55
2023-04-13T10:14:14.873Z,5.45
2023-04-13T10:19:24.322Z,5.84
2023-04-13T10:24:33.261Z,6.82
2023-04-13T10:29:41.808Z,7.39
2023-04-13T10:34:50.828Z,8.11
2023-04-13T10:39:59.204Z,7.88
2023-04-13T10:45:08.207Z,7.21
2023-04-13T10:50:17.068Z,7.17
2023-04-13T10:55:26.563Z,6.65
2023-04-13T11:05:44.367Z,5.32
2023-04-13T11:10:53.157Z,4.79
2023-04-13T11:16:02.289Z,5.07
2023-04-13T11:21:10.801Z,4.65
2023-04-13T11:26:19.611Z,4.75
2023-04-13T11:31:28.131Z,4.39
2023-04-13T11:36:37.429Z,4.51
2023-04-13T11:41:46.035Z,4.50
2023-04-13T11:46:55.113Z,4.36
2023-04-13T11:52:04.037Z,4.06
2023-04-13T11:57:13.238Z,4.22
2023-04-13T12:02:23.204Z,4.50
2023-04-13T12:07:30.452Z,4.70
2023-04-13T12:23:02.943Z,4.23
2023-04-13T12:28:03.724Z,4.72
2023-04-13T12:33:12.180Z,4.20
2023-04-13T12:38:21.099Z,4.08
2023-04-13T12:43:29.859Z,4.24
2023-04-13T12:48:39.125Z,4.36
2023-04-13T12:53:47.641Z,3.76
2023-04-13T12:58:57.183Z,5.09
2023-04-13T13:04:05.892Z,4.26
2023-04-13T13:09:14.372Z,4.83
2023-04-13T13:14:23.219Z,4.42
2023-04-13T13:19:32.585Z,4.78
2023-04-13T13:24:41.502Z,4.22
2023-04-13T13:29:50.370Z,4.19
2023-04-13T13:34:59.174Z,4.07
2023-04-13T13:40:08.311Z,4.40
2023-04-13T13:45:17.150Z,4.68
2023-04-13T13:50:26.085Z,4.27
2023-04-13T13:55:35.029Z,3.97
2023-04-13T14:00:44.332Z,3.54
2023-04-13T14:05:53.229Z,3.52
2023-04-13T14:11:02.662Z,3.33
2023-04-13T14:16:11.412Z,3.37
2023-04-13T14:21:20.097Z,3.47
2023-04-13T14:26:28.879Z,3.60
2023-04-13T14:31:38.261Z,3.82
2023-04-13T14:36:49.125Z,3.74
2023-04-13T14:41:56.678Z,6.80
2023-04-13T14:47:05.908Z,6.78
2023-04-13T14:52:12.475Z,5.16
2023-04-13T14:57:21.306Z,3.82
2023-04-13T15:02:31.413Z,4.25
2023-04-13T15:07:40.156Z,11.67
2023-04-13T15:12:49.259Z,5.32
2023-04-13T15:17:59.176Z,10.64
2023-04-13T15:23:07.130Z,7.42
2023-04-13T15:28:16.092Z,4.59
2023-04-13T15:33:25.096Z,6.50
2023-04-13T15:38:33.908Z,4.76
2023-04-13T15:43:43.142Z,5.52
2023-04-13T15:48:52.363Z,6.03
2023-04-13T15:54:01.710Z,7.63
2023-04-13T15:59:10.195Z,5.99
2023-04-13T16:04:19.340Z,8.07
2023-04-13T16:09:27.703Z,5.93
2023-04-13T16:14:36.849Z,7.07
2023-04-13T16:19:46.077Z,5.72
2023-04-13T16:24:56.345Z,16.66
2023-04-13T16:29:54.900Z,13.64
2023-04-13T16:35:04.646Z,7.94
2023-04-13T16:40:14.233Z,9.85
2023-04-13T16:45:23.781Z,8.78
2023-04-13T16:50:32.759Z,7.00
2023-04-13T16:55:42.360Z,6.47
2023-04-13T17:00:51.110Z,5.74
2023-04-13T17:06:00.609Z,5.44
2023-04-13T17:11:10.227Z,7.94
2023-04-13T17:16:19.524Z,8.16
2023-04-13T17:21:28.201Z,10.24
2023-04-13T17:26:38.675Z,9.69
2023-04-13T17:31:38.093Z,6.98
2023-04-13T17:36:48.093Z,6.31
2023-04-13T17:41:47.291Z,6.35
2023-04-13T17:46:56.836Z,5.59
2023-04-13T17:52:06.191Z,5.68
2023-04-13T17:57:16.446Z,5.82
2023-04-13T18:02:16.164Z,5.70
2023-04-13T18:07:26.543Z,6.03
2023-04-13T18:12:26.615Z,6.68
2023-04-13T18:17:25.595Z,6.57
2023-04-13T18:22:34.257Z,6.31
2023-04-13T18:27:44.045Z,9.80
2023-04-13T18:32:51.636Z,7.77
2023-04-13T18:38:00.700Z,8.76
2023-04-13T18:43:09.766Z,9.00
2023-04-13T18:48:19.004Z,8.85
2023-04-13T18:53:27.762Z,8.55
2023-04-13T18:58:37.164Z,7.56
2023-04-13T19:03:45.693Z,8.34
2023-04-13T19:08:54.958Z,8.06
2023-04-13T19:14:03.939Z,8.55
2023-04-13T19:19:13.645Z,7.61
2023-04-13T19:24:22.645Z,8.37
2023-04-13T19:29:32.517Z,8.07
2023-04-13T19:34:41.396Z,8.08
2023-04-13T19:39:50.909Z,7.88
2023-04-13T19:45:00.514Z,9.65
2023-04-13T19:50:11.841Z,7.86
2023-04-13T19:55:10.882Z,8.02
2023-04-13T20:00:20.452Z,8.53
2023-04-13T20:05:28.609Z,7.66
2023-04-13T20:10:37.874Z,7.42
2023-04-13T20:15:46.813Z,7.24
2023-04-13T20:20:56.159Z,7.35
2023-04-13T20:26:04.521Z,10.21
2023-04-13T20:31:14.128Z,8.97
2023-04-13T20:36:22.900Z,9.31
2023-04-13T20:41:32.474Z,9.78
2023-04-13T20:46:40.983Z,11.81
2023-04-13T20:51:49.997Z,11.99
2023-04-13T20:56:58.749Z,11.22
2023-04-13T21:02:08.125Z,11.01
2023-04-13T21:07:16.521Z,11.80
2023-04-13T21:12:25.823Z,11.35
2023-04-13T21:17:35.407Z,12.52
2023-04-13T21:22:44.427Z,11.92
2023-04-13T21:27:52.884Z,13.57
2023-04-13T21:33:01.851Z,13.67
2023-04-13T21:38:10.678Z,12.57
2023-04-13T21:43:19.711Z,11.79
2023-04-13T21:48:28.771Z,13.55
2023-04-13T21:53:38.189Z,11.24
2023-04-13T21:58:47.065Z,12.13
2023-04-13T22:03:56.329Z,14.43
2023-04-13T22:09:05.208Z,14.35
2023-04-13T22:14:14.514Z,18.11
2023-04-13T22:19:24.075Z,17.58
2023-04-13T22:24:33.107Z,16.73
2023-04-13T22:29:41.844Z,14.93
2023-04-13T22:34:51.074Z,14.74
2023-04-13T22:40:00.501Z,14.76
2023-04-13T22:45:10.131Z,15.21
2023-04-13T22:50:19.004Z,14.14
2023-04-13T22:55:28.242Z,14.29
2023-04-13T23:00:37.091Z,13.48
2023-04-13T23:05:46.334Z,12.94
2023-04-13T23:10:55.101Z,11.92
2023-04-13T23:16:04.565Z,11.37
2023-04-13T23:21:13.062Z,10.40
2023-04-13T23:26:22.598Z,11.06
2023-04-13T23:31:34.657Z,10.39
2023-04-13T23:36:33.594Z,10.05
2023-04-13T23:41:42.397Z,9.92
2023-04-13T23:46:51.703Z,9.91
2023-04-13T23:52:00.444Z,10.90
2023-04-13T23:57:09.459Z,11.10
